createdAt,value
2022-12-25T00:00:35.076Z,29.17
2022-12-25T00:03:01.862Z,33.50
2022-12-25T00:05:28.626Z,34.10
2022-12-25T00:07:55.375Z,31.30
2022-12-25T00:10:22.030Z,32.28
2022-12-25T00:12:48.663Z,33.00
2022-12-25T00:15:15.290Z,27.42
2022-12-25T00:17:41.927Z,36.20
2022-12-25T00:20:09.119Z,30.75
2022-12-25T00:22:35.752Z,27.02
2022-12-25T00:25:02.398Z,34.33
2022-12-25T00:27:31.913Z,34.83
2022-12-25T00:29:58.630Z,38.13
2022-12-25T00:32:25.460Z,32.80
2022-12-25T00:34:52.095Z,28.70
2022-12-25T00:37:18.800Z,32.58
2022-12-25T00:39:47.455Z,28.58
2022-12-25T00:42:14.197Z,35.33
2022-12-25T00:44:40.868Z,43.88
2022-12-25T00:47:07.585Z,37.28
2022-12-25T00:49:34.250Z,38.78
2022-12-25T00:52:01.007Z,32.17
2022-12-25T00:54:27.632Z,38.88
2022-12-25T00:56:54.382Z,30.50
2022-12-25T00:59:20.984Z,41.53
2022-12-25T01:01:47.742Z,33.85
2022-12-25T01:04:14.706Z,36.53
2022-12-25T01:06:41.415Z,30.65
2022-12-25T01:09:08.191Z,38.67
2022-12-25T01:11:34.797Z,37.92
2022-12-25T01:14:01.529Z,36.47
2022-12-25T01:16:28.254Z,40.22
2022-12-25T01:18:57.672Z,37.53
2022-12-25T01:21:24.516Z,37.10
2022-12-25T01:23:51.678Z,43.70
2022-12-25T01:26:22.242Z,39.85
2022-12-25T01:28:49.237Z,36.38
2022-12-25T01:31:17.088Z,40.65
2022-12-25T01:33:49.600Z,40.42
2022-12-25T01:36:26.090Z,46.40
2022-12-25T01:38:57.989Z,60.80
2022-12-25T01:41:44.588Z,41.38
2022-12-25T01:44:16.425Z,41.25
2022-12-25T01:46:43.616Z,40.33
2022-12-25T01:49:20.429Z,36.05
2022-12-25T01:51:56.778Z,39.38
2022-12-25T01:54:45.795Z,39.63
2022-12-25T01:57:28.892Z,37.13
2022-12-25T01:59:59.704Z,36.35
2022-12-25T02:02:27.131Z,39.63
2022-12-25T02:05:23.031Z,39.22
2022-12-25T02:07:52.735Z,33.28
2022-12-25T02:10:20.836Z,38.47
2022-12-25T02:12:50.299Z,36.60
2022-12-25T02:15:49.960Z,39.67
2022-12-25T02:18:31.924Z,38.78
2022-12-25T02:21:19.536Z,38.50
2022-12-25T02:24:25.315Z,41.53
2022-12-25T02:26:58.085Z,35.92
2022-12-25T02:29:30.575Z,37.72
2022-12-25T02:32:12.438Z,31.67
2022-12-25T02:34:49.800Z,30.92
2022-12-25T02:37:18.151Z,27.05
2022-12-25T02:39:49.327Z,31.95
2022-12-25T02:42:26.072Z,27.08
2022-12-25T02:44:52.743Z,30.40
2022-12-25T02:47:19.371Z,25.60
2022-12-25T02:49:46.023Z,24.70
2022-12-25T02:52:14.446Z,23.55
2022-12-25T02:54:54.395Z,20.95
2022-12-25T02:57:22.406Z,22.33
2022-12-25T02:59:49.031Z,18.88
2022-12-25T03:02:15.909Z,19.58
2022-12-25T03:04:42.516Z,21.27
2022-12-25T03:07:15.434Z,19.10
2022-12-25T03:10:03.539Z,22.80
2022-12-25T03:12:45.240Z,19.58
2022-12-25T03:15:11.834Z,16.05
2022-12-25T03:17:38.411Z,17.40
2022-12-25T03:20:05.863Z,19.77
2022-12-25T03:22:32.555Z,24.50
2022-12-25T03:24:59.169Z,21.50
2022-12-25T03:27:26.122Z,20.23
2022-12-25T03:29:52.755Z,25.83
2022-12-25T03:32:34.170Z,20.92
2022-12-25T03:35:16.089Z,22.38
2022-12-25T03:37:42.725Z,20.10
2022-12-25T03:40:42.658Z,21.48
2022-12-25T03:43:31.211Z,16.83
2022-12-25T03:45:59.384Z,17.27
2022-12-25T03:48:26.018Z,19.25
2022-12-25T03:50:55.174Z,20.98
2022-12-25T03:53:26.875Z,21.63
2022-12-25T03:55:53.519Z,17.27
2022-12-25T03:58:22.179Z,15.93
2022-12-25T04:00:48.844Z,17.27
2022-12-25T04:03:18.388Z,18.92
2022-12-25T04:05:45.094Z,17.48
2022-12-25T04:08:11.776Z,22.20
2022-12-25T04:10:38.359Z,19.73
2022-12-25T04:13:04.991Z,26.40
2022-12-25T04:15:31.659Z,20.83
2022-12-25T04:17:58.419Z,16.67
2022-12-25T04:20:25.080Z,13.80
2022-12-25T04:22:52.872Z,16.88
2022-12-25T04:25:19.568Z,13.98
2022-12-25T04:27:46.151Z,16.30
2022-12-25T04:30:12.900Z,15.65
2022-12-25T04:32:39.533Z,14.45
2022-12-25T04:35:06.397Z,15.52
2022-12-25T04:37:33.009Z,15.70
2022-12-25T04:39:59.619Z,15.05
2022-12-25T04:42:26.249Z,13.75
2022-12-25T04:44:53.004Z,13.43
2022-12-25T04:47:19.767Z,15.43
2022-12-25T04:49:46.463Z,13.70
2022-12-25T04:52:13.144Z,15.52
2022-12-25T04:54:39.899Z,13.02
2022-12-25T04:57:06.632Z,14.35
2022-12-25T04:59:33.235Z,10.68
2022-12-25T05:01:59.942Z,14.85
2022-12-25T05:04:26.627Z,11.30
2022-12-25T05:06:53.314Z,15.15
2022-12-25T05:09:19.928Z,14.40
2022-12-25T05:11:46.584Z,13.30
2022-12-25T05:14:13.219Z,15.65
2022-12-25T05:16:39.943Z,11.93
2022-12-25T05:19:06.677Z,14.88
2022-12-25T05:21:33.266Z,13.95
2022-12-25T05:23:59.909Z,13.85
2022-12-25T05:26:26.739Z,16.23
2022-12-25T05:28:53.665Z,11.75
2022-12-25T05:31:20.353Z,18.40
2022-12-25T05:33:50.055Z,14.02
2022-12-25T05:36:16.753Z,16.13
2022-12-25T05:38:43.384Z,15.05
2022-12-25T05:41:10.135Z,15.35
2022-12-25T05:43:36.738Z,13.90
2022-12-25T05:46:07.249Z,19.83
2022-12-25T05:48:34.723Z,15.98
2022-12-25T05:51:09.047Z,16.42
2022-12-25T05:53:37.084Z,14.93
2022-12-25T05:56:04.852Z,17.67
2022-12-25T05:58:32.694Z,15.85
2022-12-25T06:00:59.433Z,15.35
2022-12-25T06:03:26.371Z,19.98
2022-12-25T06:05:53.181Z,15.20
2022-12-25T06:08:20.084Z,15.00
2022-12-25T06:10:46.906Z,14.93
2022-12-25T06:13:13.635Z,17.50
2022-12-25T06:15:41.051Z,14.52
2022-12-25T06:18:08.087Z,10.75
2022-12-25T06:20:35.008Z,14.57
2022-12-25T06:23:01.663Z,13.18
2022-12-25T06:25:28.348Z,12.85
2022-12-25T06:27:55.254Z,13.75
2022-12-25T06:30:22.043Z,14.38
2022-12-25T06:32:48.745Z,12.90
2022-12-25T06:35:15.530Z,12.13
2022-12-25T06:37:43.210Z,16.80
2022-12-25T06:40:10.113Z,13.02
2022-12-25T06:42:36.749Z,12.35
2022-12-25T06:45:03.613Z,17.67
2022-12-25T06:47:30.251Z,12.13
2022-12-25T06:49:56.966Z,18.67
2022-12-25T06:52:23.683Z,14.45
2022-12-25T06:54:50.322Z,14.68
2022-12-25T06:57:17.087Z,15.50
2022-12-25T06:59:43.747Z,14.90
2022-12-25T07:02:20.059Z,14.30
2022-12-25T07:04:46.857Z,12.20
2022-12-25T07:07:13.734Z,17.27
2022-12-25T07:09:40.476Z,14.55
2022-12-25T07:12:15.664Z,15.30
2022-12-25T07:14:42.406Z,17.27
2022-12-25T07:17:08.993Z,12.90
2022-12-25T07:19:41.107Z,15.77
2022-12-25T07:22:11.233Z,15.43
2022-12-25T07:24:37.911Z,15.23
2022-12-25T07:27:04.575Z,22.33
2022-12-25T07:29:31.242Z,19.85
2022-12-25T07:31:58.022Z,18.90
2022-12-25T07:34:24.742Z,14.82
2022-12-25T07:36:51.335Z,16.08
2022-12-25T07:39:18.041Z,15.70
2022-12-25T07:41:44.793Z,19.88
2022-12-25T07:44:11.397Z,16.23
2022-12-25T07:46:38.071Z,20.60
2022-12-25T07:49:04.774Z,23.67
2022-12-25T07:51:31.385Z,21.17
2022-12-25T07:53:58.140Z,14.60
2022-12-25T07:56:24.829Z,14.57
2022-12-25T07:58:51.472Z,19.15
2022-12-25T08:01:20.455Z,15.73
2022-12-25T08:03:51.767Z,18.48
2022-12-25T08:06:18.726Z,16.75
2022-12-25T08:08:45.416Z,16.17
2022-12-25T08:11:12.136Z,18.50
2022-12-25T08:13:41.653Z,17.90
2022-12-25T08:16:09.146Z,19.80
2022-12-25T08:18:35.981Z,18.95
2022-12-25T08:21:13.167Z,20.67
2022-12-25T08:23:45.225Z,19.42
2022-12-25T08:26:13.963Z,15.68
2022-12-25T08:28:40.601Z,17.55
2022-12-25T08:34:12.527Z,18.27
2022-12-25T08:36:39.167Z,17.33
2022-12-25T08:39:08.266Z,22.15
2022-12-25T08:41:35.022Z,20.20
2022-12-25T08:44:02.312Z,19.75
2022-12-25T08:46:29.116Z,22.13
2022-12-25T08:48:56.278Z,22.15
2022-12-25T08:51:23.602Z,15.98
2022-12-25T08:53:51.170Z,14.85
2022-12-25T08:56:18.456Z,18.60
2022-12-25T08:58:45.247Z,24.10
2022-12-25T09:01:12.618Z,16.98
2022-12-25T09:03:39.356Z,17.40
2022-12-25T09:06:07.854Z,19.45
2022-12-25T09:08:35.043Z,21.02
2022-12-25T09:11:02.863Z,24.30
2022-12-25T09:13:29.499Z,25.90
2022-12-25T09:15:56.190Z,20.67
2022-12-25T09:18:22.966Z,22.88
2022-12-25T09:21:04.643Z,25.05
2022-12-25T09:23:31.671Z,28.77
2022-12-25T09:25:59.713Z,23.88
2022-12-25T09:28:26.623Z,22.42
2022-12-25T09:30:53.853Z,23.73
2022-12-25T09:33:20.991Z,23.20
2022-12-25T09:35:54.978Z,26.40
2022-12-25T09:38:21.852Z,21.83
2022-12-25T09:40:48.587Z,23.27
2022-12-25T09:43:17.124Z,29.40
2022-12-25T09:45:44.003Z,27.83
2022-12-25T09:48:14.751Z,25.85
2022-12-25T09:51:06.662Z,30.50
2022-12-25T09:53:40.680Z,28.75
2022-12-25T09:56:14.272Z,29.65
2022-12-25T09:58:41.008Z,31.58
2022-12-25T10:01:40.480Z,28.95
2022-12-25T10:04:27.088Z,27.08
2022-12-25T10:06:56.711Z,26.33
2022-12-25T10:09:55.363Z,27.17
2022-12-25T10:12:29.759Z,33.42
2022-12-25T10:15:26.253Z,27.27
2022-12-25T10:18:11.966Z,26.98
2022-12-25T10:20:55.981Z,42.15
2022-12-25T10:23:27.290Z,29.70
2022-12-25T10:25:54.058Z,38.15
2022-12-25T10:28:43.902Z,31.63
2022-12-25T10:31:29.561Z,40.72
2022-12-25T10:33:56.452Z,31.80
2022-12-25T10:36:26.699Z,37.17
2022-12-25T10:38:57.411Z,41.42
2022-12-25T10:41:54.694Z,36.03
2022-12-25T10:44:23.868Z,40.30
2022-12-25T10:46:54.932Z,34.28
2022-12-25T10:49:26.191Z,41.42
2022-12-25T10:51:55.616Z,44.35
2022-12-25T10:54:31.907Z,41.40
2022-12-25T10:57:02.708Z,36.17
2022-12-25T10:59:35.226Z,29.63
2022-12-25T11:02:29.456Z,31.95
2022-12-25T11:05:07.191Z,30.83
2022-12-25T11:07:45.627Z,29.58
2022-12-25T11:10:24.861Z,34.60
2022-12-25T11:12:53.384Z,34.60
2022-12-25T11:15:38.409Z,30.25
2022-12-25T11:18:18.140Z,30.52
2022-12-25T11:20:55.286Z,29.08
2022-12-25T11:23:25.006Z,30.58
2022-12-25T11:25:55.723Z,26.42
2022-12-25T11:28:24.264Z,36.20
2022-12-25T11:30:53.341Z,26.30
2022-12-25T11:33:22.086Z,32.45
2022-12-25T11:35:51.800Z,24.63
2022-12-25T11:38:19.838Z,36.10
2022-12-25T11:40:49.864Z,39.97
2022-12-25T11:43:22.269Z,36.42
2022-12-25T11:45:57.944Z,42.08
2022-12-25T11:48:36.978Z,43.60
2022-12-25T11:51:04.996Z,51.22
2022-12-25T11:53:37.272Z,51.78
2022-12-25T11:56:28.019Z,39.08
2022-12-25T11:58:58.172Z,38.60
2022-12-25T12:01:39.402Z,35.90
2022-12-25T12:04:31.802Z,32.60
2022-12-25T12:07:08.554Z,40.55
2022-12-25T12:10:03.077Z,32.92
2022-12-25T12:15:48.497Z,38.15
2022-12-25T12:18:27.266Z,36.80
2022-12-25T12:21:00.316Z,39.25
2022-12-25T12:23:28.470Z,46.30
2022-12-25T12:25:55.525Z,35.33
2022-12-25T12:28:28.411Z,39.10
2022-12-25T12:31:06.792Z,31.90
2022-12-25T12:33:58.641Z,39.83
2022-12-25T12:36:35.532Z,41.95
2022-12-25T12:39:03.429Z,31.23
2022-12-25T12:41:49.484Z,29.75
2022-12-25T12:44:16.527Z,37.10
2022-12-25T12:46:56.712Z,34.35
2022-12-25T12:49:24.443Z,26.73
2022-12-25T12:52:01.927Z,33.72
2022-12-25T12:54:28.747Z,47.28
2022-12-25T12:57:21.537Z,36.92
2022-12-25T12:59:48.311Z,41.75
2022-12-25T13:02:39.491Z,50.70
2022-12-25T13:05:26.562Z,39.38
2022-12-25T13:08:15.890Z,42.95
2022-12-25T13:10:46.821Z,37.88
2022-12-25T13:13:27.030Z,47.08
2022-12-25T13:15:54.079Z,44.53
2022-12-25T13:18:20.755Z,40.42
2022-12-25T13:20:55.449Z,36.50
2022-12-25T13:23:29.620Z,44.90
2022-12-25T13:26:01.659Z,45.47
2022-12-25T13:28:32.858Z,37.28
2022-12-25T13:31:06.931Z,47.22
2022-12-25T13:33:33.714Z,39.17
2022-12-25T13:36:00.403Z,37.50
2022-12-25T13:38:27.826Z,43.47
2022-12-25T13:40:55.522Z,38.53
2022-12-25T13:43:22.190Z,33.90
2022-12-25T13:45:54.419Z,38.95
2022-12-25T13:48:21.151Z,48.50
2022-12-25T13:50:56.520Z,44.08
2022-12-25T13:53:23.173Z,46.90
2022-12-25T13:55:51.685Z,43.75
2022-12-25T13:58:38.660Z,48.70
2022-12-25T14:01:05.545Z,41.83
2022-12-25T14:03:45.388Z,43.30
2022-12-25T14:06:25.212Z,46.92
2022-12-25T14:08:52.275Z,40.75
2022-12-25T14:11:20.668Z,39.45
2022-12-25T14:13:47.985Z,49.72
2022-12-25T14:16:18.183Z,45.92
2022-12-25T14:18:56.401Z,37.90
2022-12-25T14:21:28.183Z,45.75
2022-12-25T14:23:54.846Z,69.82
2022-12-25T14:26:29.690Z,45.50
2022-12-25T14:29:05.788Z,48.03
2022-12-25T14:31:32.695Z,58.78
2022-12-25T14:34:00.205Z,55.05
2022-12-25T14:36:26.888Z,57.42
2022-12-25T14:39:00.953Z,42.63
2022-12-25T14:41:38.406Z,48.10
2022-12-25T14:44:24.655Z,61.58
2022-12-25T14:46:51.342Z,50.17
2022-12-25T14:49:24.341Z,54.90
2022-12-25T14:51:51.025Z,55.53
2022-12-25T14:54:19.520Z,60.90
2022-12-25T14:56:50.370Z,74.85
2022-12-25T14:59:21.452Z,50.08
2022-12-25T15:01:53.298Z,51.42
2022-12-25T15:04:20.093Z,62.47
2022-12-25T15:06:54.794Z,54.33
2022-12-25T15:09:21.806Z,47.75
2022-12-25T15:11:52.396Z,40.67
2022-12-25T15:14:19.059Z,67.68
2022-12-25T15:16:53.661Z,54.22
2022-12-25T15:19:27.223Z,49.60
2022-12-25T15:21:55.287Z,85.47
2022-12-25T15:24:21.878Z,57.28
2022-12-25T15:26:48.559Z,90.80
2022-12-25T15:29:15.171Z,50.30
2022-12-25T15:31:41.910Z,56.70
2022-12-25T15:34:16.903Z,60.78
2022-12-25T15:36:43.555Z,67.20
2022-12-25T15:39:13.300Z,77.43
2022-12-25T15:41:40.001Z,86.47
2022-12-25T15:44:06.661Z,61.70
2022-12-25T15:46:33.570Z,62.83
2022-12-25T15:49:00.549Z,87.57
2022-12-25T15:51:27.202Z,77.68
2022-12-25T15:53:53.875Z,66.72
2022-12-25T15:56:20.484Z,68.20
2022-12-25T15:58:47.144Z,68.43
2022-12-25T16:01:14.890Z,56.58
2022-12-25T16:03:44.915Z,60.80
2022-12-25T16:06:19.405Z,59.50
2022-12-25T16:08:46.248Z,58.88
2022-12-25T16:11:12.930Z,87.18
2022-12-25T16:13:39.548Z,81.38
2022-12-25T16:16:06.805Z,56.95
2022-12-25T16:18:33.565Z,53.95
2022-12-25T16:21:00.345Z,61.20
2022-12-25T16:23:26.994Z,63.95
2022-12-25T16:25:53.726Z,62.90
2022-12-25T16:28:20.399Z,56.55
2022-12-25T16:30:47.249Z,61.75
2022-12-25T16:33:14.496Z,71.25
2022-12-25T16:35:41.136Z,79.97
2022-12-25T16:38:07.852Z,64.32
2022-12-25T16:40:34.558Z,81.07
2022-12-25T16:43:01.215Z,90.32
2022-12-25T16:45:27.871Z,74.72
2022-12-25T16:47:55.780Z,77.97
2022-12-25T16:50:22.678Z,73.65
2022-12-25T16:52:49.285Z,83.10
2022-12-25T16:55:15.902Z,62.25
2022-12-25T16:57:42.543Z,93.85
2022-12-25T17:00:09.894Z,90.30
2022-12-25T17:02:36.775Z,115.97
2022-12-25T17:05:03.568Z,92.95
2022-12-25T17:07:30.228Z,73.00
2022-12-25T17:09:56.967Z,95.55
2022-12-25T17:12:26.320Z,84.97
2022-12-25T17:14:53.048Z,72.05
2022-12-25T17:17:19.673Z,94.90
2022-12-25T17:19:46.420Z,150.80
2022-12-25T17:22:13.114Z,113.90
2022-12-25T17:24:40.094Z,88.10
2022-12-25T17:27:07.043Z,74.55
2022-12-25T17:29:33.962Z,62.35
2022-12-25T17:32:00.756Z,80.07
2022-12-25T17:34:27.487Z,78.93
2022-12-25T17:36:55.376Z,66.70
2022-12-25T17:39:22.028Z,63.40
2022-12-25T17:41:51.708Z,75.93
2022-12-25T17:44:18.697Z,99.25
2022-12-25T17:46:45.369Z,62.65
2022-12-25T17:49:16.584Z,88.68
2022-12-25T17:51:43.203Z,67.47
2022-12-25T17:54:09.859Z,83.55
2022-12-25T17:56:36.733Z,84.57
2022-12-25T17:59:03.826Z,78.72
2022-12-25T18:01:30.543Z,87.60
2022-12-25T18:03:59.165Z,81.55
2022-12-25T18:06:26.519Z,77.43
2022-12-25T18:08:54.014Z,100.00
2022-12-25T18:11:22.668Z,127.95
2022-12-25T18:13:50.556Z,82.85
2022-12-25T18:16:18.076Z,82.28
2022-12-25T18:18:51.376Z,126.30
2022-12-25T18:21:18.919Z,177.48
2022-12-25T18:23:45.574Z,85.60
2022-12-25T18:26:12.255Z,92.72
2022-12-25T18:28:41.843Z,77.82
2022-12-25T18:31:09.807Z,83.63
2022-12-25T18:33:39.102Z,60.85
2022-12-25T18:36:06.139Z,62.17
2022-12-25T18:38:33.052Z,86.18
2022-12-25T18:40:59.885Z,102.85
2022-12-25T18:43:51.360Z,72.68
2022-12-25T18:46:13.260Z,56.25
2022-12-25T18:48:39.959Z,83.40
2022-12-25T18:51:08.227Z,87.18
2022-12-25T18:53:35.164Z,70.22
2022-12-25T18:56:12.737Z,71.75
2022-12-25T18:58:39.412Z,67.57
2022-12-25T19:01:20.356Z,66.80
2022-12-25T19:03:47.250Z,73.80
2022-12-25T19:06:21.451Z,83.43
2022-12-25T19:08:48.209Z,68.55
2022-12-25T19:11:15.379Z,67.28
2022-12-25T19:13:42.020Z,66.35
2022-12-25T19:16:08.683Z,68.78
2022-12-25T19:18:35.381Z,56.10
2022-12-25T19:21:06.065Z,68.32
2022-12-25T19:23:32.984Z,73.80
2022-12-25T19:25:59.672Z,73.75
2022-12-25T19:28:26.407Z,81.80
2022-12-25T19:30:53.380Z,68.65
2022-12-25T19:33:21.390Z,70.40
2022-12-25T19:35:48.045Z,63.22
2022-12-25T19:38:14.819Z,60.92
2022-12-25T19:40:41.479Z,58.60
2022-12-25T19:43:08.203Z,57.13
2022-12-25T19:45:34.912Z,53.97
2022-12-25T19:48:02.691Z,58.72
2022-12-25T19:50:31.903Z,58.80
2022-12-25T19:52:58.627Z,65.15
2022-12-25T19:55:25.271Z,72.97
2022-12-25T19:57:51.949Z,69.68
2022-12-25T20:00:18.672Z,61.65
2022-12-25T20:02:45.514Z,72.57
2022-12-25T20:05:12.336Z,71.40
2022-12-25T20:07:39.529Z,72.45
2022-12-25T20:10:06.692Z,69.55
2022-12-25T20:12:33.333Z,80.90
2022-12-25T20:14:59.991Z,73.55
2022-12-25T20:17:26.623Z,86.00
2022-12-25T20:19:53.344Z,82.85
2022-12-25T20:22:19.987Z,80.90
2022-12-25T20:24:46.711Z,137.25
2022-12-25T20:27:13.573Z,86.60
2022-12-25T20:29:41.063Z,70.78
2022-12-25T20:32:07.705Z,81.53
2022-12-25T20:34:34.358Z,75.18
2022-12-25T20:37:01.183Z,96.18
2022-12-25T20:39:27.873Z,81.88
2022-12-25T20:41:54.532Z,83.28
2022-12-25T20:44:21.233Z,72.57
2022-12-25T20:46:47.924Z,87.38
2022-12-25T20:49:14.554Z,78.13
2022-12-25T20:51:41.177Z,74.75
2022-12-25T20:54:08.708Z,60.75
2022-12-25T20:56:35.851Z,79.88
2022-12-25T20:59:02.787Z,60.00
2022-12-25T21:01:32.756Z,65.90
2022-12-25T21:04:15.888Z,64.72
2022-12-25T21:06:43.205Z,56.67
2022-12-25T21:09:10.077Z,81.18
2022-12-25T21:11:37.227Z,81.03
2022-12-25T21:14:05.751Z,78.65
2022-12-25T21:16:32.538Z,67.47
2022-12-25T21:18:59.494Z,75.05
2022-12-25T21:21:27.504Z,81.68
2022-12-25T21:23:55.754Z,79.22
2022-12-25T21:26:28.591Z,90.28
2022-12-25T21:28:56.459Z,76.90
2022-12-25T21:31:23.514Z,74.05
2022-12-25T21:33:50.605Z,84.45
2022-12-25T21:36:20.931Z,78.93
2022-12-25T21:38:47.584Z,104.57
2022-12-25T21:41:14.836Z,80.75
2022-12-25T21:43:41.516Z,88.10
2022-12-25T21:46:09.635Z,84.15
2022-12-25T21:48:37.044Z,109.00
2022-12-25T21:51:05.165Z,86.63
2022-12-25T21:53:32.205Z,85.97
2022-12-25T21:56:00.756Z,92.70
2022-12-25T21:58:27.805Z,95.82
2022-12-25T22:01:04.908Z,89.25
2022-12-25T22:03:31.651Z,88.68
2022-12-25T22:05:58.470Z,92.22
2022-12-25T22:08:30.053Z,105.45
2022-12-25T22:10:56.714Z,101.47
2022-12-25T22:13:26.635Z,99.75
2022-12-25T22:15:53.665Z,83.72
2022-12-25T22:18:20.325Z,97.80
2022-12-25T22:20:54.020Z,91.38
2022-12-25T22:23:20.645Z,92.82
2022-12-25T22:25:47.352Z,98.53
2022-12-25T22:28:13.995Z,105.07
2022-12-25T22:30:42.980Z,75.22
2022-12-25T22:33:09.800Z,79.90
2022-12-25T22:35:36.535Z,85.18
2022-12-25T22:38:03.299Z,79.10
2022-12-25T22:40:29.999Z,77.25
2022-12-25T22:42:56.857Z,72.22
2022-12-25T22:45:24.072Z,83.50
2022-12-25T22:47:50.723Z,88.90
2022-12-25T22:50:17.487Z,95.13
2022-12-25T22:52:45.778Z,85.60
2022-12-25T22:55:12.797Z,82.43
2022-12-25T22:57:41.937Z,84.65
2022-12-25T23:00:09.325Z,84.03
2022-12-25T23:02:36.125Z,79.53
2022-12-25T23:05:03.345Z,88.90
2022-12-25T23:07:30.158Z,77.18
2022-12-25T23:09:56.833Z,82.50
2022-12-25T23:12:23.449Z,82.40
2022-12-25T23:14:50.081Z,74.18
2022-12-25T23:17:16.768Z,72.63
2022-12-25T23:19:43.490Z,80.05
2022-12-25T23:22:11.385Z,84.40
2022-12-25T23:24:38.028Z,86.55
2022-12-25T23:27:04.717Z,81.43
2022-12-25T23:29:31.392Z,79.72
2022-12-25T23:31:58.044Z,81.75
2022-12-25T23:34:24.785Z,77.53
2022-12-25T23:36:51.480Z,79.32
2022-12-25T23:39:18.147Z,61.53
2022-12-25T23:41:44.854Z,83.80
2022-12-25T23:44:12.442Z,80.70
2022-12-25T23:46:39.785Z,69.57
2022-12-25T23:49:06.793Z,89.15
2022-12-25T23:51:35.831Z,74.75
2022-12-25T23:54:03.280Z,74.30
2022-12-25T23:56:29.900Z,76.50
2022-12-25T23:58:56.579Z,74.80
